Kezdőlap
METAR-TAF:

METAR-TAF

Repülőterek :

Porto Alegre, Rio Grande do Sul, Brazília

földrajzi szélesség: 30-00S, földrajzi hosszúság: 051-11W, magasság: 3 m

Jelenlegi meteorológiai megfigyelések

A jelentés 26 perccel ezelõtt készült, 17:00 UTC
Nyugat-északnyugati szél 7 kt, nyugati és észak-északnyugati között változik
Hőmérséklet 26°C
Páratartalom 48%
Légköri nyomás 1016 hPa
Látótávolság 10 km, vagy több
felhőtlen 1500 m magasságban, és nincs gomolyfelhõ

METAR: SBPA 031700Z 30007KT 270V330 CAVOK 26/14 Q1016

Idő: 14:26 (17:26 UTC)

Előrejelzés

A jelentés 8 órával és 26 perccel ezelõtt készült, 09:00 UTC
Az előrejelzés 03-én 12 óra UTC és 04-én 12 óra UTC között érvényes
Északi szél 5 kt
Látótávolság 10 km, vagy több
felhőtlen 1500 m magasságban, és nincs gomolyfelhõ

TAF: SBPA 030900Z 0312/0412 35005KT CAVOK TX27/0317Z TN14/0409Z RMK PDZ

Meteorológiai megfigyelések és előrejelzések több, mint 4000 repülőtéren (METAR és TAF jelentéseket).

A térképen piros és sárga pontok jelzik az elérhető meteorológiai állomásokat.

Mozgassa az egeret a pont fölött, hogy megjelenjen az állomás neve.

Azután kattintson az időjárási megfigyelések és előrejelzések megtekintéséhez.

A térkép megváltoztatása: kattintson a fekete keresztel jelölt zöld gombra ráközelítéshez, a vonallal jelölt zöld gombra távolításhoz, vagy a zöld nyilakra a szomszédos térképek eléréséhez.


METAR-TAF: